createdAt,value
2023-03-10T00:00:09.557Z,1.20
2023-03-10T00:02:38.818Z,1.30
2023-03-10T00:05:07.934Z,1.37
2023-03-10T00:07:38.256Z,1.33
2023-03-10T00:10:07.446Z,1.40
2023-03-10T00:12:36.110Z,1.67
2023-03-10T00:15:05.701Z,1.73
2023-03-10T00:17:34.586Z,1.57
2023-03-10T00:20:03.141Z,1.33
2023-03-10T00:22:31.658Z,1.20
2023-03-10T00:25:01.920Z,1.30
2023-03-10T00:27:30.760Z,1.40
2023-03-10T00:29:59.588Z,1.00
2023-03-10T00:32:28.111Z,1.60
2023-03-10T00:34:56.662Z,1.23
2023-03-10T00:37:25.226Z,1.10
2023-03-10T00:39:54.367Z,1.23
2023-03-10T00:42:24.652Z,1.30
2023-03-10T00:44:53.368Z,1.50
2023-03-10T00:47:22.436Z,1.27
2023-03-10T00:49:50.896Z,1.17
2023-03-10T00:52:19.348Z,1.20
2023-03-10T00:54:47.818Z,1.30
2023-03-10T00:57:16.639Z,1.00
2023-03-10T00:59:50.439Z,0.93
2023-03-10T01:02:19.791Z,1.27
2023-03-10T01:04:48.939Z,0.83
2023-03-10T01:07:17.891Z,0.97
2023-03-10T01:09:46.597Z,1.00
2023-03-10T01:12:15.175Z,1.13
2023-03-10T01:14:43.676Z,1.47
2023-03-10T01:17:13.866Z,1.20
2023-03-10T01:19:42.585Z,0.90
2023-03-10T01:22:11.162Z,1.33
2023-03-10T01:24:39.934Z,1.20
2023-03-10T01:27:08.626Z,1.00
2023-03-10T01:29:37.221Z,0.90
2023-03-10T01:32:05.900Z,1.40
2023-03-10T01:34:35.991Z,1.10
2023-03-10T01:37:04.919Z,0.90
2023-03-10T01:39:33.869Z,1.37
2023-03-10T01:42:02.383Z,1.60
2023-03-10T01:44:30.895Z,1.33
2023-03-10T01:46:59.805Z,1.20
2023-03-10T01:49:30.983Z,1.20
2023-03-10T01:52:03.587Z,1.20
2023-03-10T01:54:34.141Z,1.10
2023-03-10T01:57:02.930Z,1.20
2023-03-10T01:59:31.701Z,1.30
2023-03-10T02:02:00.688Z,0.97
2023-03-10T02:04:32.040Z,1.13
2023-03-10T02:07:04.034Z,1.17
2023-03-10T02:09:33.648Z,1.10
2023-03-10T02:12:02.718Z,1.33
2023-03-10T02:14:32.098Z,1.10
2023-03-10T02:17:00.656Z,1.10
2023-03-10T02:19:38.406Z,1.00
2023-03-10T02:22:11.502Z,1.43
2023-03-10T02:24:43.778Z,1.87
2023-03-10T02:27:16.192Z,1.13
2023-03-10T02:29:58.396Z,1.10
2023-03-10T02:32:28.888Z,1.27
2023-03-10T02:34:57.340Z,1.10
2023-03-10T02:37:26.960Z,1.10
2023-03-10T02:39:55.408Z,1.10
2023-03-10T02:42:27.216Z,1.57
2023-03-10T02:44:55.861Z,1.10
2023-03-10T02:47:24.509Z,0.90
2023-03-10T02:49:52.908Z,1.10
2023-03-10T02:52:25.827Z,0.80
2023-03-10T02:54:54.225Z,0.90
2023-03-10T02:57:22.759Z,1.00
2023-03-10T02:59:52.508Z,0.90
2023-03-10T03:02:20.834Z,0.80
2023-03-10T03:04:49.182Z,1.00
2023-03-10T03:07:17.434Z,0.80
2023-03-10T03:09:45.711Z,0.80
2023-03-10T03:12:14.095Z,1.00
2023-03-10T03:14:42.500Z,1.00
2023-03-10T03:17:12.429Z,1.23
2023-03-10T03:19:40.717Z,0.80
2023-03-10T03:22:08.976Z,1.07
2023-03-10T03:24:37.269Z,0.90
2023-03-10T03:27:06.651Z,1.00
2023-03-10T03:29:35.195Z,1.03
2023-03-10T03:32:03.693Z,1.30
2023-03-10T03:34:33.872Z,0.97
2023-03-10T03:37:02.546Z,1.60
2023-03-10T03:39:30.793Z,0.80
2023-03-10T03:41:59.203Z,0.93
2023-03-10T03:44:27.463Z,1.20
2023-03-10T03:46:55.877Z,1.03
2023-03-10T03:49:24.207Z,1.17
2023-03-10T03:51:54.498Z,0.90
2023-03-10T03:54:22.785Z,0.80
2023-03-10T03:56:51.234Z,0.73
2023-03-10T03:59:19.465Z,0.70
2023-03-10T04:01:47.798Z,0.90
2023-03-10T04:04:16.076Z,1.00
2023-03-10T04:06:44.409Z,0.90
2023-03-10T04:09:14.337Z,0.90
2023-03-10T04:11:42.652Z,0.80
2023-03-10T04:14:11.150Z,0.97
2023-03-10T04:16:39.435Z,1.37
2023-03-10T04:19:08.061Z,1.17
2023-03-10T04:21:36.781Z,1.33
2023-03-10T04:24:05.279Z,1.47
2023-03-10T04:26:35.407Z,0.90
2023-03-10T04:29:03.748Z,0.97
2023-03-10T04:31:32.149Z,1.50
2023-03-10T04:34:00.591Z,1.00
2023-03-10T04:36:28.974Z,1.23
2023-03-10T04:38:57.329Z,1.10
2023-03-10T04:41:25.661Z,0.80
2023-03-10T04:43:55.582Z,1.00
2023-03-10T04:46:24.193Z,0.97
2023-03-10T04:48:53.140Z,1.20
2023-03-10T04:51:21.545Z,1.20
2023-03-10T04:53:50.515Z,1.10
2023-03-10T04:56:19.206Z,1.00
2023-03-10T04:58:47.680Z,1.03
2023-03-10T05:01:17.779Z,1.20
2023-03-10T05:03:46.217Z,0.93
2023-03-10T05:06:15.600Z,1.03
2023-03-10T05:08:44.351Z,1.07
2023-03-10T05:11:12.733Z,0.77
2023-03-10T05:13:41.086Z,1.10
2023-03-10T05:16:13.865Z,1.07
2023-03-10T05:18:43.857Z,1.00
2023-03-10T05:21:12.237Z,0.90
2023-03-10T05:23:40.675Z,0.93
2023-03-10T05:26:09.671Z,1.27
2023-03-10T05:28:38.439Z,0.97
2023-03-10T05:31:09.863Z,1.23
2023-03-10T05:33:38.335Z,0.97
2023-03-10T05:36:10.096Z,0.97
2023-03-10T05:38:38.845Z,0.93
2023-03-10T05:41:08.496Z,0.97
2023-03-10T05:43:37.320Z,1.27
2023-03-10T05:46:05.895Z,1.40
2023-03-10T05:48:34.600Z,1.00
2023-03-10T05:51:03.757Z,1.00
2023-03-10T05:53:34.704Z,1.10
2023-03-10T05:56:06.398Z,1.20
2023-03-10T05:58:35.410Z,1.20
2023-03-10T06:01:05.065Z,1.70
2023-03-10T06:03:35.871Z,1.17
2023-03-10T06:06:05.354Z,1.37
2023-03-10T06:08:35.624Z,1.50
2023-03-10T06:11:04.220Z,1.10
2023-03-10T06:13:39.098Z,1.50
2023-03-10T06:16:08.149Z,1.00
2023-03-10T06:18:36.677Z,1.20
2023-03-10T06:21:07.333Z,1.30
2023-03-10T06:23:38.042Z,1.20
2023-03-10T06:26:08.809Z,1.47
2023-03-10T06:28:52.146Z,1.60
2023-03-10T06:31:21.511Z,0.90
2023-03-10T06:36:44.239Z,1.33
2023-03-10T06:39:14.516Z,1.00
2023-03-10T06:41:43.507Z,1.00
2023-03-10T06:44:19.025Z,1.13
2023-03-10T06:46:47.544Z,1.77
2023-03-10T06:49:15.894Z,1.00
2023-03-10T06:51:44.135Z,1.10
2023-03-10T06:54:14.027Z,1.10
2023-03-10T06:56:42.403Z,0.97
2023-03-10T06:59:10.689Z,1.33
2023-03-10T07:01:39.238Z,1.20
2023-03-10T07:04:07.716Z,1.20
2023-03-10T07:06:36.234Z,1.50
2023-03-10T07:09:04.502Z,1.73
2023-03-10T07:11:34.423Z,1.13
2023-03-10T07:14:03.543Z,1.43
2023-03-10T07:16:32.020Z,1.20
2023-03-10T07:19:00.449Z,1.10
2023-03-10T07:21:28.862Z,1.80
2023-03-10T07:23:57.173Z,1.50
2023-03-10T07:26:26.841Z,1.00
2023-03-10T07:28:56.771Z,1.20
2023-03-10T07:31:25.696Z,1.20
2023-03-10T07:33:54.280Z,1.10
2023-03-10T07:36:23.684Z,1.50
2023-03-10T07:38:52.332Z,1.30
2023-03-10T07:41:22.048Z,1.23
2023-03-10T07:43:53.368Z,1.40
2023-03-10T07:46:23.443Z,1.57
2023-03-10T07:48:52.984Z,1.07
2023-03-10T07:51:21.692Z,1.87
2023-03-10T07:53:50.115Z,1.50
2023-03-10T07:56:18.796Z,1.67
2023-03-10T07:58:47.780Z,1.20
2023-03-10T08:01:17.908Z,1.50
2023-03-10T08:03:48.089Z,1.87
2023-03-10T08:06:20.445Z,1.57
2023-03-10T08:08:48.823Z,1.60
2023-03-10T08:11:17.634Z,1.33
2023-03-10T08:13:47.371Z,1.53
2023-03-10T08:16:17.244Z,1.47
2023-03-10T08:18:45.809Z,1.43
2023-03-10T08:21:15.664Z,1.73
2023-03-10T08:23:43.921Z,1.40
2023-03-10T08:26:14.501Z,1.40
2023-03-10T08:28:42.914Z,1.40
2023-03-10T08:31:12.320Z,1.30
2023-03-10T08:33:41.033Z,1.60
2023-03-10T08:36:10.607Z,1.27
2023-03-10T08:38:40.973Z,1.03
2023-03-10T08:41:12.858Z,1.63
2023-03-10T08:43:43.903Z,1.50
2023-03-10T08:46:12.928Z,1.50
2023-03-10T08:48:42.858Z,1.50
2023-03-10T08:51:16.817Z,1.50
2023-03-10T08:53:47.645Z,1.63
2023-03-10T08:56:16.332Z,1.50
2023-03-10T08:58:44.828Z,1.30
2023-03-10T09:01:13.406Z,1.10
2023-03-10T09:03:42.704Z,1.67
2023-03-10T09:06:11.429Z,1.20
2023-03-10T09:08:41.374Z,1.67
2023-03-10T09:11:11.356Z,1.20
2023-03-10T09:13:40.056Z,1.27
2023-03-10T09:16:11.204Z,1.47
2023-03-10T09:18:39.840Z,1.83
2023-03-10T09:21:08.377Z,1.50
2023-03-10T09:23:36.874Z,1.40
2023-03-10T09:26:05.277Z,1.40
2023-03-10T09:28:35.030Z,1.40
2023-03-10T09:31:05.057Z,1.20
2023-03-10T09:33:35.367Z,1.20
2023-03-10T09:36:07.026Z,1.70
2023-03-10T09:38:36.261Z,1.10
2023-03-10T09:41:10.908Z,1.50
2023-03-10T09:43:41.794Z,1.40
2023-03-10T09:46:17.143Z,1.50
2023-03-10T09:48:50.775Z,1.30
2023-03-10T09:51:22.776Z,1.10
2023-03-10T09:54:00.378Z,1.30
2023-03-10T09:56:31.558Z,1.27
2023-03-10T09:59:05.703Z,1.53
2023-03-10T10:01:34.567Z,1.30
2023-03-10T10:04:04.797Z,1.47
2023-03-10T10:06:35.162Z,1.40
2023-03-10T10:09:07.159Z,1.33
2023-03-10T10:11:36.988Z,1.00
2023-03-10T10:14:38.359Z,1.10
2023-03-10T10:17:11.639Z,1.93
2023-03-10T10:19:41.253Z,0.80
2023-03-10T10:22:12.458Z,0.93
2023-03-10T10:24:40.969Z,0.70
2023-03-10T10:27:09.649Z,0.50
2023-03-10T10:29:42.557Z,0.77
2023-03-10T10:32:12.040Z,0.77
2023-03-10T10:34:41.806Z,0.60
2023-03-10T10:37:23.213Z,0.57
2023-03-10T10:39:53.212Z,0.50
2023-03-10T10:42:24.264Z,0.40
2023-03-10T10:51:57.666Z,0.77
2023-03-10T10:54:40.123Z,0.70
2023-03-10T10:57:49.917Z,0.70
2023-03-10T11:00:46.638Z,0.53
2023-03-10T11:03:21.764Z,0.90
2023-03-10T11:05:50.218Z,0.77
2023-03-10T11:08:20.063Z,0.60
2023-03-10T11:10:55.444Z,0.60
2023-03-10T11:13:25.419Z,0.70
2023-03-10T11:15:56.327Z,0.80
2023-03-10T11:18:29.248Z,1.00
2023-03-10T11:21:02.210Z,0.50
2023-03-10T11:23:34.869Z,0.77
2023-03-10T11:26:08.861Z,0.70
2023-03-10T11:28:42.733Z,0.60
2023-03-10T11:31:16.830Z,0.70
2023-03-10T11:33:48.538Z,1.00
2023-03-10T11:36:20.191Z,0.50
2023-03-10T11:38:49.701Z,0.73
2023-03-10T11:41:21.712Z,0.80
2023-03-10T11:43:56.458Z,0.90
2023-03-10T11:46:26.530Z,0.50
2023-03-10T11:49:12.858Z,0.73
2023-03-10T11:51:43.671Z,0.60
2023-03-10T11:57:05.433Z,0.70
2023-03-10T11:59:35.212Z,0.73
2023-03-10T12:02:18.363Z,1.27
2023-03-10T12:05:13.877Z,0.60
2023-03-10T12:07:44.592Z,0.70
2023-03-10T12:10:16.987Z,0.60
2023-03-10T12:12:47.831Z,0.60
2023-03-10T12:15:24.122Z,0.50
2023-03-10T12:17:53.843Z,0.90
2023-03-10T12:20:27.061Z,0.60
2023-03-10T12:22:56.556Z,1.03
2023-03-10T12:25:53.214Z,0.60
2023-03-10T12:28:56.703Z,0.87
2023-03-10T12:31:39.864Z,0.87
2023-03-10T12:34:15.340Z,0.70
2023-03-10T12:36:45.206Z,0.70
2023-03-10T12:39:27.274Z,0.60
2023-03-10T12:41:56.280Z,0.67
2023-03-10T12:45:04.102Z,0.70
2023-03-10T12:47:36.498Z,0.50
2023-03-10T12:50:22.781Z,0.77
2023-03-10T12:52:54.953Z,0.70
2023-03-10T12:55:24.430Z,0.60
2023-03-10T12:57:56.391Z,0.60
2023-03-10T13:00:31.580Z,0.60
2023-03-10T13:03:03.212Z,0.50
2023-03-10T13:05:35.366Z,0.60
2023-03-10T13:08:06.392Z,0.40
2023-03-10T13:13:20.593Z,0.70
2023-03-10T13:16:01.157Z,0.60
2023-03-10T13:18:30.479Z,0.63
2023-03-10T13:21:01.690Z,0.40
2023-03-10T13:23:32.542Z,0.50
2023-03-10T13:26:02.434Z,0.47
2023-03-10T13:28:31.901Z,0.80
2023-03-10T13:31:19.440Z,0.40
2023-03-10T13:33:53.357Z,0.50
2023-03-10T13:36:25.759Z,0.70
2023-03-10T13:38:56.474Z,0.67
2023-03-10T13:41:24.886Z,0.53
2023-03-10T13:43:53.908Z,0.53
2023-03-10T13:46:26.583Z,0.47
2023-03-10T13:48:58.484Z,0.50
2023-03-10T13:51:32.326Z,0.60
2023-03-10T13:54:12.920Z,0.60
2023-03-10T13:56:42.697Z,0.60
2023-03-10T13:59:24.202Z,0.63
2023-03-10T14:01:55.426Z,0.60
2023-03-10T14:04:38.680Z,0.53
2023-03-10T14:07:12.636Z,0.67
2023-03-10T14:09:41.403Z,0.40
2023-03-10T14:12:10.707Z,0.50
2023-03-10T14:14:41.666Z,0.40
2023-03-10T14:17:29.788Z,0.30
2023-03-10T14:19:58.185Z,0.50
2023-03-10T14:22:36.424Z,0.40
2023-03-10T14:25:09.719Z,0.50
2023-03-10T14:27:42.573Z,0.40
2023-03-10T14:30:22.456Z,0.40
2023-03-10T14:32:52.068Z,0.50
2023-03-10T14:35:22.174Z,0.40
2023-03-10T14:37:52.671Z,0.50
2023-03-10T14:40:24.302Z,0.43
2023-03-10T14:42:53.824Z,0.30
2023-03-10T14:45:29.747Z,0.40
2023-03-10T14:47:59.194Z,0.67
2023-03-10T14:50:29.672Z,0.40
2023-03-10T14:53:01.756Z,0.40
2023-03-10T14:55:30.448Z,0.60
2023-03-10T14:58:02.828Z,0.40
2023-03-10T15:00:32.178Z,0.40
2023-03-10T15:03:01.928Z,0.40
2023-03-10T15:05:46.978Z,0.43
2023-03-10T15:08:19.011Z,0.80
2023-03-10T15:11:01.251Z,0.40
2023-03-10T15:13:34.147Z,0.30
2023-03-10T15:16:02.616Z,0.40
2023-03-10T15:18:31.072Z,0.40
2023-03-10T15:23:45.045Z,0.30
2023-03-10T15:26:13.756Z,0.60
2023-03-10T15:28:42.097Z,0.63
2023-03-10T15:31:10.426Z,0.50
2023-03-10T15:33:38.775Z,0.40
2023-03-10T15:36:07.417Z,0.50
2023-03-10T15:38:35.822Z,0.47
2023-03-10T15:41:05.790Z,0.60
2023-03-10T15:43:34.222Z,0.40
2023-03-10T15:46:07.138Z,0.63
2023-03-10T15:48:35.564Z,0.50
2023-03-10T15:51:03.868Z,0.70
2023-03-10T15:53:32.256Z,0.50
2023-03-10T15:56:00.530Z,0.40
2023-03-10T15:58:33.234Z,0.50
2023-03-10T16:01:01.887Z,0.57
2023-03-10T16:03:30.916Z,0.50
2023-03-10T16:05:59.605Z,0.50
2023-03-10T16:08:29.076Z,1.03
2023-03-10T16:11:03.881Z,0.97
2023-03-10T16:13:34.503Z,0.80
2023-03-10T16:16:14.406Z,0.93
2023-03-10T16:18:42.962Z,0.80
2023-03-10T16:21:12.904Z,0.70
2023-03-10T16:23:41.398Z,0.70
2023-03-10T16:26:15.542Z,0.60
2023-03-10T16:28:52.666Z,0.60
2023-03-10T16:31:26.590Z,0.50
2023-03-10T16:33:58.952Z,0.50
2023-03-10T16:36:39.121Z,0.60
2023-03-10T16:39:17.966Z,0.63
2023-03-10T16:47:29.763Z,0.40
2023-03-10T16:50:15.906Z,0.60
2023-03-10T16:52:44.735Z,0.50
2023-03-10T16:55:20.007Z,0.50
2023-03-10T17:00:34.120Z,0.50
2023-03-10T17:06:34.277Z,0.40
2023-03-10T17:09:15.598Z,0.60
2023-03-10T17:12:03.206Z,0.60
2023-03-10T17:20:30.382Z,0.40
2023-03-10T17:23:30.954Z,0.80
2023-03-10T17:26:04.967Z,0.80
2023-03-10T17:31:50.402Z,1.00
2023-03-10T17:34:21.486Z,0.73
2023-03-10T17:37:04.637Z,1.30
2023-03-10T17:39:34.397Z,0.80
2023-03-10T17:42:25.233Z,1.03
2023-03-10T17:44:56.823Z,1.20
2023-03-10T17:47:25.467Z,1.10
2023-03-10T17:50:22.464Z,0.97
2023-03-10T17:52:52.187Z,1.17
2023-03-10T17:55:24.094Z,1.20
2023-03-10T17:57:52.854Z,1.10
2023-03-10T18:00:29.979Z,1.77
2023-03-10T18:03:02.712Z,1.60
2023-03-10T18:05:32.915Z,1.23
2023-03-10T18:08:30.489Z,1.23
2023-03-10T18:11:20.956Z,1.53
2023-03-10T18:24:59.359Z,1.53
2023-03-10T18:35:58.154Z,1.20
2023-03-10T18:38:38.575Z,1.37
2023-03-10T18:43:46.723Z,1.40
2023-03-10T18:46:32.326Z,1.70
2023-03-10T18:51:40.270Z,1.67
2023-03-10T18:54:29.117Z,1.60
2023-03-10T18:57:03.823Z,1.20
2023-03-10T19:00:00.477Z,1.20
2023-03-10T19:02:40.154Z,1.20
2023-03-10T19:05:18.060Z,1.13
2023-03-10T19:07:53.720Z,1.77
2023-03-10T19:13:34.916Z,1.27
2023-03-10T19:16:10.790Z,0.67
2023-03-10T19:19:07.778Z,1.00
2023-03-10T19:21:37.989Z,1.17
2023-03-10T19:24:11.264Z,1.17
2023-03-10T19:26:40.470Z,1.03
2023-03-10T19:29:52.252Z,0.70
2023-03-10T19:35:42.815Z,1.30
2023-03-10T19:38:25.519Z,1.60
2023-03-10T19:54:32.346Z,1.50
2023-03-10T19:57:06.459Z,1.40
2023-03-10T20:05:09.600Z,2.10
2023-03-10T20:07:39.304Z,1.20
2023-03-10T20:10:10.048Z,1.43
2023-03-10T20:12:38.570Z,1.10
2023-03-10T20:15:07.768Z,1.70
2023-03-10T20:17:36.148Z,1.43
2023-03-10T20:20:10.258Z,1.70
2023-03-10T20:22:40.538Z,1.70
2023-03-10T20:25:12.522Z,1.40
2023-03-10T20:27:41.354Z,1.70
2023-03-10T20:30:17.882Z,1.40
2023-03-10T20:32:46.668Z,1.57
2023-03-10T20:35:23.821Z,1.47
2023-03-10T20:37:52.429Z,1.80
2023-03-10T20:40:26.176Z,1.20
2023-03-10T20:42:55.963Z,1.10
2023-03-10T20:45:25.008Z,1.50
2023-03-10T20:47:54.408Z,1.30
2023-03-10T20:50:23.196Z,1.47
2023-03-10T20:52:53.971Z,1.33
2023-03-10T20:55:27.362Z,1.30
2023-03-10T20:57:57.468Z,1.50
2023-03-10T21:00:26.553Z,1.57
2023-03-10T21:02:57.746Z,1.23
2023-03-10T21:05:26.808Z,1.43
2023-03-10T21:07:55.174Z,1.30
2023-03-10T21:10:27.815Z,1.30
2023-03-10T21:12:56.147Z,1.07
2023-03-10T21:15:25.556Z,1.00
2023-03-10T21:17:54.520Z,1.87
2023-03-10T21:20:23.784Z,1.37
2023-03-10T21:22:52.391Z,1.20
2023-03-10T21:25:23.045Z,1.17
2023-03-10T21:27:58.592Z,0.97
2023-03-10T21:30:29.217Z,1.30
2023-03-10T21:32:58.267Z,0.87
2023-03-10T21:35:28.170Z,1.17
2023-03-10T21:37:57.423Z,1.33
2023-03-10T21:40:28.800Z,1.10
2023-03-10T21:43:00.842Z,1.40
2023-03-10T21:45:30.237Z,1.33
2023-03-10T21:47:58.315Z,1.13
2023-03-10T21:50:26.810Z,1.50
2023-03-10T21:52:54.906Z,1.53
2023-03-10T21:55:25.606Z,1.40
2023-03-10T21:57:53.944Z,1.00
2023-03-10T22:00:24.476Z,1.30
2023-03-10T22:02:53.078Z,1.70
2023-03-10T22:05:22.021Z,1.20
2023-03-10T22:07:50.790Z,1.43
2023-03-10T22:10:19.365Z,1.50
2023-03-10T22:12:47.997Z,1.30
2023-03-10T22:15:19.746Z,1.60
2023-03-10T22:17:50.791Z,1.30
2023-03-10T22:20:21.752Z,1.43
2023-03-10T22:22:50.336Z,1.30
2023-03-10T22:25:22.184Z,1.10
2023-03-10T22:27:52.749Z,1.33
2023-03-10T22:30:21.620Z,1.20
2023-03-10T22:32:51.196Z,1.40
2023-03-10T22:35:20.673Z,1.30
2023-03-10T22:37:51.546Z,0.93
2023-03-10T22:40:21.582Z,1.00
2023-03-10T22:42:52.490Z,1.20
2023-03-10T22:45:24.761Z,1.00
2023-03-10T22:47:57.434Z,1.00
2023-03-10T22:50:29.473Z,1.03
2023-03-10T22:52:57.781Z,1.20
2023-03-10T22:55:26.329Z,1.13
2023-03-10T22:57:56.522Z,1.00
2023-03-10T23:00:25.815Z,0.80
2023-03-10T23:02:57.261Z,1.20
2023-03-10T23:05:26.979Z,0.90
2023-03-10T23:07:55.553Z,0.70
2023-03-10T23:10:26.815Z,0.87
2023-03-10T23:12:56.303Z,0.70
2023-03-10T23:15:26.611Z,1.07
2023-03-10T23:17:57.099Z,0.97
2023-03-10T23:20:27.721Z,1.07
2023-03-10T23:22:57.143Z,0.97
2023-03-10T23:25:27.749Z,0.80
2023-03-10T23:27:55.873Z,1.00
2023-03-10T23:30:24.899Z,1.17
2023-03-10T23:32:53.621Z,1.17
2023-03-10T23:35:25.844Z,1.10
2023-03-10T23:37:53.879Z,1.00
2023-03-10T23:40:23.348Z,0.90
2023-03-10T23:42:52.150Z,0.73
2023-03-10T23:45:22.704Z,1.00
2023-03-10T23:47:52.019Z,1.03
2023-03-10T23:50:23.953Z,0.93
2023-03-10T23:52:52.006Z,0.73
2023-03-10T23:55:23.793Z,1.10
2023-03-10T23:57:51.908Z,1.00
